Home   Weather   Germany   Cologne   Past weeks
Flag for Germany

Past Weather in Cologne, North Rhine-Westphalia, Germany — Yesterday and Last 2 Weeks

Currently: 77 °F. Sunny. (Weather station: Koeln / Bonn, Germany). See more current weather

Past Weather in Cologne — Graph

°F

Cologne Temperature Yesterday

Maximum temperature yesterday: 81 °F (at 3:50 pm)
Minimum temperature yesterday: 45 °F (at 5:20 am)
Average temperature yesterday: 65 °F

High & Low Weather Summary for the Past Weeks

 TemperatureHumidityPressure
High95 °F (Aug 4, 12:20 pm)100% (Aug 2, 6:20 am)30.36 "Hg (Aug 2, 6:20 am)
Low45 °F (Aug 7, 5:20 am)25% (Aug 4, 1:20 pm)29.80 "Hg (Jul 25, 8:20 am)
Average70 °F60%30.06 "Hg
* Reported Jul 24 7:20 pm — Aug 8 7:50 pm, Cologne. Weather by CustomWeather, © 2022

Note: Actual official high and low records may vary slightly from our data, if they occured in-between our weather recording intervals... More about our weather records

Cologne Weather History for the Previous 24 Hours

Scroll right to see more
 ConditionsComfort  
Time TempWeatherWind HumidityBarometerVisibility
7:50 pm
Mon, Aug 8
79 °FSunny.10 mph37%30.21 "Hg10 mi
7:20 pm79 °FPassing clouds.10 mph34%30.21 "HgN/A
6:50 pm81 °FPassing clouds.10 mph32%30.21 "HgN/A
6:20 pm82 °FSunny.10 mph30%30.21 "Hg10 mi
5:50 pm82 °FPassing clouds.9 mph30%30.21 "HgN/A
5:20 pm82 °FPassing clouds.9 mph30%30.21 "HgN/A
4:50 pm82 °FPassing clouds.14 mph30%30.21 "HgN/A
4:20 pm81 °FPassing clouds.15 mph32%30.21 "HgN/A
3:50 pm82 °FPassing clouds.13 mph30%30.21 "HgN/A
1:50 pm81 °FPassing clouds.8 mph30%30.24 "HgN/A
1:20 pm81 °FPassing clouds.9 mph30%30.24 "HgN/A
12:20 pm79 °FSunny.3 mph34%30.24 "Hg10 mi
11:50 am77 °FSunny.8 mph39%30.27 "Hg10 mi
11:20 am75 °FSunny.6 mph41%30.27 "Hg10 mi
10:50 am73 °FPassing clouds.5 mph44%30.27 "HgN/A
10:20 am72 °FSunny.3 mph47%30.27 "Hg10 mi
9:50 am68 °FSunny.2 mph53%30.27 "Hg10 mi
9:20 am64 °FSunny.2 mph56%30.27 "Hg10 mi
8:50 am63 °FSunny.2 mph64%30.27 "Hg10 mi
8:20 am61 °FSunny.1 mph68%30.24 "Hg10 mi
7:50 am55 °FSunny.2 mph77%30.24 "Hg10 mi
7:20 am54 °FSunny.1 mph82%30.24 "Hg10 mi
6:50 am50 °FSunny.1 mph88%30.24 "Hg10 mi
6:20 am50 °FSunny.2 mph88%30.24 "Hg10 mi
5:50 am50 °FClear.1 mph88%30.24 "Hg10 mi
5:20 am50 °FClear.1 mph88%30.21 "Hg10 mi
4:50 am50 °FClear.2 mph88%30.21 "Hg10 mi
4:20 am52 °FClear.1 mph82%30.21 "Hg10 mi
3:50 am52 °FClear.2 mph82%30.21 "Hg10 mi
3:20 am54 °FClear.2 mph77%30.21 "Hg10 mi
2:50 am54 °FClear.3 mph77%30.21 "Hg10 mi
1:20 am57 °FPassing clouds.3 mph67%30.21 "HgN/A
12:50 am57 °FClear.1 mph67%30.21 "Hg10 mi
12:20 am59 °FClear.2 mph63%30.21 "Hg10 mi
11:50 pm
Sun, Aug 7
59 °FClear.1 mph63%30.21 "Hg10 mi
11:20 pm61 °FClear.3 mph59%30.21 "Hg10 mi
10:50 pm63 °FPassing clouds.3 mph56%30.21 "HgN/A
10:20 pm64 °FClear.3 mph52%30.21 "Hg10 mi
9:50 pm68 °FClear.5 mph43%30.21 "Hg10 mi
9:20 pm70 °FClear.6 mph40%30.18 "Hg10 mi
Weather by CustomWeather, © 2022

See weather overview